KMOP

Mount Pleasant Municipal Airport

Mount Pleasant, Michigan, USA
METAR KMOP 211255Z AUTO 33006KT 10SM OVC017 00/M02 A3032 RMK AO2 T00021021
Observed Flight Rules
Feb-21 @ 12:55 UTC (19 minutes ago) Marginal Visual Flight Rules
Wind Visibility Clouds
330° at 6 knots 10 miles
  • Overcast at 1,700' AGL
Temperatures Readings
Current 0°C / 32°F
Dewpoint -2°C / 28°F
Humidity 87%
Altimeter 30.32" Hg
Pressure 1027 hPa
Elevation 230
METAR KMOP 211255Z AUTO 33006KT 10SM OVC017 00/M02 A3032 RMK AO2 T00021021
Observed Flight Rules
Feb-21 @ 12:55 UTC
(19 minutes ago)
MVFR
Wind Visibility
330° at 6 knots 10 miles
Clouds
  • Overcast at 1,700' AGL
Temperature Dewpoint
0°C / 32°F -2°C / 28°F
Humidity Altimeter Pressure
87% 30.32" Hg 1027 hPa